sensor_id;sensor_type;location;lat;lon;timestamp;temperature;humidity
24262;DHT22;12385;51.412;5.540;2023-05-10T00:00:23;14.00;99.90
24262;DHT22;12385;51.412;5.540;2023-05-10T00:02:49;14.00;99.90
24262;DHT22;12385;51.412;5.540;2023-05-10T00:05:15;14.00;99.90
24262;DHT22;12385;51.412;5.540;2023-05-10T00:07:40;14.00;99.90
24262;DHT22;12385;51.412;5.540;2023-05-10T00:10:10;14.00;99.90
24262;DHT22;12385;51.412;5.540;2023-05-10T00:12:36;14.00;99.90
24262;DHT22;12385;51.412;5.540;2023-05-10T00:15:03;13.90;99.90
24262;DHT22;12385;51.412;5.540;2023-05-10T00:17:28;13.90;99.90
24262;DHT22;12385;51.412;5.540;2023-05-10T00:19:54;13.90;99.90
24262;DHT22;12385;51.412;5.540;2023-05-10T00:22:20;13.90;99.90
24262;DHT22;12385;51.412;5.540;2023-05-10T00:24:46;13.90;99.90
24262;DHT22;12385;51.412;5.540;2023-05-10T00:27:11;13.90;99.90
24262;DHT22;12385;51.412;5.540;2023-05-10T00:29:37;13.90;99.90
24262;DHT22;12385;51.412;5.540;2023-05-10T00:32:02;13.90;99.90
24262;DHT22;12385;51.412;5.540;2023-05-10T00:34:29;13.90;99.90
24262;DHT22;12385;51.412;5.540;2023-05-10T00:36:54;13.90;99.90
24262;DHT22;12385;51.412;5.540;2023-05-10T00:39:20;13.90;99.90
24262;DHT22;12385;51.412;5.540;2023-05-10T00:41:45;13.90;99.90
24262;DHT22;12385;51.412;5.540;2023-05-10T00:44:11;13.80;99.90
24262;DHT22;12385;51.412;5.540;2023-05-10T00:46:37;13.80;99.90
24262;DHT22;12385;51.412;5.540;2023-05-10T00:49:02;13.80;99.90
24262;DHT22;12385;51.412;5.540;2023-05-10T00:51:29;13.90;99.90
24262;DHT22;12385;51.412;5.540;2023-05-10T00:53:54;13.90;99.90
24262;DHT22;12385;51.412;5.540;2023-05-10T00:56:21;13.80;99.90
24262;DHT22;12385;51.412;5.540;2023-05-10T00:58:48;13.90;99.90
24262;DHT22;12385;51.412;5.540;2023-05-10T01:01:14;13.80;99.90
24262;DHT22;12385;51.412;5.540;2023-05-10T01:03:40;13.80;99.90
24262;DHT22;12385;51.412;5.540;2023-05-10T01:06:07;13.90;99.90
24262;DHT22;12385;51.412;5.540;2023-05-10T01:08:32;13.80;99.90
24262;DHT22;12385;51.412;5.540;2023-05-10T01:10:58;13.90;99.90
24262;DHT22;12385;51.412;5.540;2023-05-10T01:13:36;13.80;99.90
24262;DHT22;12385;51.412;5.540;2023-05-10T01:16:03;13.90;99.90
24262;DHT22;12385;51.412;5.540;2023-05-10T01:18:38;13.80;99.90
24262;DHT22;12385;51.412;5.540;2023-05-10T01:21:17;13.90;99.90
24262;DHT22;12385;51.412;5.540;2023-05-10T01:35:19;13.90;99.90
24262;DHT22;12385;51.412;5.540;2023-05-10T01:43:39;13.90;99.90
24262;DHT22;12385;51.412;5.540;2023-05-10T01:46:10;13.90;99.90
24262;DHT22;12385;51.412;5.540;2023-05-10T01:48:51;13.80;99.90
24262;DHT22;12385;51.412;5.540;2023-05-10T01:51:23;13.90;99.90
24262;DHT22;12385;51.412;5.540;2023-05-10T01:53:49;13.90;99.90
24262;DHT22;12385;51.412;5.540;2023-05-10T01:56:17;13.90;99.90
24262;DHT22;12385;51.412;5.540;2023-05-10T01:58:47;13.90;99.90
24262;DHT22;12385;51.412;5.540;2023-05-10T02:01:14;13.90;99.90
24262;DHT22;12385;51.412;5.540;2023-05-10T02:03:41;13.90;99.90
24262;DHT22;12385;51.412;5.540;2023-05-10T02:06:09;13.90;99.90
24262;DHT22;12385;51.412;5.540;2023-05-10T02:08:36;13.90;99.90
24262;DHT22;12385;51.412;5.540;2023-05-10T02:11:03;13.90;99.90
24262;DHT22;12385;51.412;5.540;2023-05-10T02:13:32;13.90;99.90
24262;DHT22;12385;51.412;5.540;2023-05-10T02:16:00;13.90;99.90
24262;DHT22;12385;51.412;5.540;2023-05-10T02:18:27;13.80;99.90
24262;DHT22;12385;51.412;5.540;2023-05-10T02:20:55;13.80;99.90
24262;DHT22;12385;51.412;5.540;2023-05-10T02:23:21;13.80;99.90
24262;DHT22;12385;51.412;5.540;2023-05-10T02:25:49;13.80;99.90
24262;DHT22;12385;51.412;5.540;2023-05-10T02:28:17;13.80;99.90
24262;DHT22;12385;51.412;5.540;2023-05-10T02:30:43;13.80;99.90
24262;DHT22;12385;51.412;5.540;2023-05-10T02:33:09;13.80;99.90
24262;DHT22;12385;51.412;5.540;2023-05-10T02:35:36;13.90;99.90
24262;DHT22;12385;51.412;5.540;2023-05-10T02:38:04;13.80;99.90
24262;DHT22;12385;51.412;5.540;2023-05-10T02:40:30;13.80;99.90
24262;DHT22;12385;51.412;5.540;2023-05-10T02:42:59;13.80;99.90
24262;DHT22;12385;51.412;5.540;2023-05-10T02:45:30;13.80;99.90
24262;DHT22;12385;51.412;5.540;2023-05-10T02:47:56;13.80;99.90
24262;DHT22;12385;51.412;5.540;2023-05-10T02:50:25;13.70;99.90
24262;DHT22;12385;51.412;5.540;2023-05-10T02:52:56;13.70;99.90
24262;DHT22;12385;51.412;5.540;2023-05-10T02:55:26;13.70;99.90
24262;DHT22;12385;51.412;5.540;2023-05-10T02:58:03;13.70;99.90
24262;DHT22;12385;51.412;5.540;2023-05-10T03:00:29;13.70;99.90
24262;DHT22;12385;51.412;5.540;2023-05-10T03:02:54;13.70;99.90
24262;DHT22;12385;51.412;5.540;2023-05-10T03:05:25;13.70;99.90
24262;DHT22;12385;51.412;5.540;2023-05-10T03:07:51;13.70;99.90
24262;DHT22;12385;51.412;5.540;2023-05-10T03:10:17;13.60;99.90
24262;DHT22;12385;51.412;5.540;2023-05-10T03:13:36;13.60;99.90
24262;DHT22;12385;51.412;5.540;2023-05-10T03:16:14;13.60;99.90
24262;DHT22;12385;51.412;5.540;2023-05-10T03:21:08;13.60;99.90
24262;DHT22;12385;51.412;5.540;2023-05-10T03:26:10;13.60;99.90
24262;DHT22;12385;51.412;5.540;2023-05-10T03:28:39;13.60;99.90
24262;DHT22;12385;51.412;5.540;2023-05-10T03:31:06;13.60;99.90
24262;DHT22;12385;51.412;5.540;2023-05-10T03:33:32;13.60;99.90
24262;DHT22;12385;51.412;5.540;2023-05-10T03:35:57;13.60;99.90
24262;DHT22;12385;51.412;5.540;2023-05-10T03:38:23;13.60;99.90
24262;DHT22;12385;51.412;5.540;2023-05-10T03:40:49;13.60;99.90
24262;DHT22;12385;51.412;5.540;2023-05-10T03:43:14;13.60;99.90
24262;DHT22;12385;51.412;5.540;2023-05-10T03:45:40;13.60;99.90
24262;DHT22;12385;51.412;5.540;2023-05-10T03:48:05;13.60;99.90
24262;DHT22;12385;51.412;5.540;2023-05-10T03:50:32;13.60;99.90
24262;DHT22;12385;51.412;5.540;2023-05-10T03:52:59;13.60;99.90
24262;DHT22;12385;51.412;5.540;2023-05-10T03:55:24;13.60;99.90
24262;DHT22;12385;51.412;5.540;2023-05-10T03:57:50;13.50;99.90
24262;DHT22;12385;51.412;5.540;2023-05-10T04:00:16;13.60;99.90
24262;DHT22;12385;51.412;5.540;2023-05-10T04:02:41;13.50;99.90
24262;DHT22;12385;51.412;5.540;2023-05-10T04:05:07;13.50;99.90
24262;DHT22;12385;51.412;5.540;2023-05-10T04:07:33;13.60;99.90
24262;DHT22;12385;51.412;5.540;2023-05-10T04:09:58;13.50;99.90
24262;DHT22;12385;51.412;5.540;2023-05-10T04:12:24;13.60;99.90
24262;DHT22;12385;51.412;5.540;2023-05-10T04:14:50;13.60;99.90
24262;DHT22;12385;51.412;5.540;2023-05-10T04:17:16;13.60;99.90
24262;DHT22;12385;51.412;5.540;2023-05-10T04:19:42;13.60;99.90
24262;DHT22;12385;51.412;5.540;2023-05-10T04:22:07;13.60;99.90
24262;DHT22;12385;51.412;5.540;2023-05-10T04:24:33;13.50;99.90
24262;DHT22;12385;51.412;5.540;2023-05-10T04:26:59;13.50;99.90
24262;DHT22;12385;51.412;5.540;2023-05-10T04:29:24;13.50;99.90
24262;DHT22;12385;51.412;5.540;2023-05-10T04:31:50;13.50;99.90
24262;DHT22;12385;51.412;5.540;2023-05-10T04:34:16;13.50;99.90
24262;DHT22;12385;51.412;5.540;2023-05-10T04:36:41;13.50;99.90
24262;DHT22;12385;51.412;5.540;2023-05-10T04:39:07;13.50;99.90
24262;DHT22;12385;51.412;5.540;2023-05-10T04:41:34;13.50;99.90
24262;DHT22;12385;51.412;5.540;2023-05-10T04:43:59;13.50;99.90
24262;DHT22;12385;51.412;5.540;2023-05-10T04:46:25;13.60;99.90
24262;DHT22;12385;51.412;5.540;2023-05-10T04:48:51;13.60;99.90
24262;DHT22;12385;51.412;5.540;2023-05-10T04:51:16;13.60;99.90
24262;DHT22;12385;51.412;5.540;2023-05-10T04:53:42;13.50;99.90
24262;DHT22;12385;51.412;5.540;2023-05-10T04:56:07;13.50;99.90
24262;DHT22;12385;51.412;5.540;2023-05-10T04:58:33;13.50;99.90
24262;DHT22;12385;51.412;5.540;2023-05-10T05:01:08;13.50;99.90
24262;DHT22;12385;51.412;5.540;2023-05-10T05:03:33;13.60;99.90
24262;DHT22;12385;51.412;5.540;2023-05-10T05:06:00;13.50;99.90
24262;DHT22;12385;51.412;5.540;2023-05-10T05:08:25;13.60;99.90
24262;DHT22;12385;51.412;5.540;2023-05-10T05:10:51;13.60;99.90
24262;DHT22;12385;51.412;5.540;2023-05-10T05:13:17;13.60;99.90
24262;DHT22;12385;51.412;5.540;2023-05-10T05:15:42;13.60;99.90
24262;DHT22;12385;51.412;5.540;2023-05-10T05:18:08;13.60;99.90
24262;DHT22;12385;51.412;5.540;2023-05-10T05:20:34;13.60;99.90
24262;DHT22;12385;51.412;5.540;2023-05-10T05:23:00;13.60;99.90
24262;DHT22;12385;51.412;5.540;2023-05-10T05:25:25;13.70;99.90
24262;DHT22;12385;51.412;5.540;2023-05-10T05:27:51;13.80;99.90
24262;DHT22;12385;51.412;5.540;2023-05-10T05:30:17;13.80;99.90
24262;DHT22;12385;51.412;5.540;2023-05-10T05:32:42;13.80;99.90
24262;DHT22;12385;51.412;5.540;2023-05-10T05:35:08;13.80;99.90
24262;DHT22;12385;51.412;5.540;2023-05-10T05:37:35;13.80;99.90
24262;DHT22;12385;51.412;5.540;2023-05-10T05:40:01;13.80;99.90
24262;DHT22;12385;51.412;5.540;2023-05-10T05:42:27;13.80;99.90
24262;DHT22;12385;51.412;5.540;2023-05-10T05:44:52;13.80;99.90
24262;DHT22;12385;51.412;5.540;2023-05-10T05:47:18;13.80;99.90
24262;DHT22;12385;51.412;5.540;2023-05-10T05:49:44;13.80;99.90
24262;DHT22;12385;51.412;5.540;2023-05-10T05:52:12;13.80;99.90
24262;DHT22;12385;51.412;5.540;2023-05-10T05:54:38;13.80;99.90
24262;DHT22;12385;51.412;5.540;2023-05-10T05:57:03;13.90;99.90
24262;DHT22;12385;51.412;5.540;2023-05-10T05:59:29;13.80;99.90
24262;DHT22;12385;51.412;5.540;2023-05-10T06:01:55;13.80;99.90
24262;DHT22;12385;51.412;5.540;2023-05-10T06:04:20;13.80;99.90
24262;DHT22;12385;51.412;5.540;2023-05-10T06:06:46;13.80;99.90
24262;DHT22;12385;51.412;5.540;2023-05-10T06:09:12;13.80;99.90
24262;DHT22;12385;51.412;5.540;2023-05-10T06:11:38;13.80;99.90
24262;DHT22;12385;51.412;5.540;2023-05-10T06:14:04;13.80;99.90
24262;DHT22;12385;51.412;5.540;2023-05-10T06:16:32;13.80;99.90
24262;DHT22;12385;51.412;5.540;2023-05-10T06:18:57;13.90;99.90
24262;DHT22;12385;51.412;5.540;2023-05-10T06:21:23;13.90;99.90
24262;DHT22;12385;51.412;5.540;2023-05-10T06:23:48;13.90;99.90
24262;DHT22;12385;51.412;5.540;2023-05-10T06:26:14;13.90;99.90
24262;DHT22;12385;51.412;5.540;2023-05-10T06:28:40;13.90;99.90
24262;DHT22;12385;51.412;5.540;2023-05-10T06:31:06;13.90;99.90
24262;DHT22;12385;51.412;5.540;2023-05-10T06:33:32;13.90;99.90
24262;DHT22;12385;51.412;5.540;2023-05-10T06:35:58;13.90;99.90
24262;DHT22;12385;51.412;5.540;2023-05-10T06:38:24;13.90;99.90
24262;DHT22;12385;51.412;5.540;2023-05-10T06:40:49;13.80;99.90
24262;DHT22;12385;51.412;5.540;2023-05-10T06:43:15;13.90;99.90
24262;DHT22;12385;51.412;5.540;2023-05-10T06:45:40;13.90;99.90
24262;DHT22;12385;51.412;5.540;2023-05-10T06:48:06;14.00;99.90
24262;DHT22;12385;51.412;5.540;2023-05-10T06:50:32;14.10;99.90
24262;DHT22;12385;51.412;5.540;2023-05-10T06:52:58;14.10;99.90
24262;DHT22;12385;51.412;5.540;2023-05-10T06:55:24;14.20;99.90
24262;DHT22;12385;51.412;5.540;2023-05-10T06:57:50;14.20;99.90
24262;DHT22;12385;51.412;5.540;2023-05-10T07:00:17;14.30;99.90
24262;DHT22;12385;51.412;5.540;2023-05-10T07:02:43;14.30;99.90
24262;DHT22;12385;51.412;5.540;2023-05-10T07:05:09;14.40;99.90
24262;DHT22;12385;51.412;5.540;2023-05-10T07:07:34;14.50;99.90
24262;DHT22;12385;51.412;5.540;2023-05-10T07:10:00;14.60;99.90
24262;DHT22;12385;51.412;5.540;2023-05-10T07:12:26;14.60;99.90
24262;DHT22;12385;51.412;5.540;2023-05-10T07:14:52;14.70;99.90
24262;DHT22;12385;51.412;5.540;2023-05-10T07:17:17;14.80;99.90
24262;DHT22;12385;51.412;5.540;2023-05-10T07:19:43;14.80;99.90
24262;DHT22;12385;51.412;5.540;2023-05-10T07:22:09;14.80;99.90
24262;DHT22;12385;51.412;5.540;2023-05-10T07:24:34;14.80;99.90
24262;DHT22;12385;51.412;5.540;2023-05-10T07:27:00;14.80;99.90
24262;DHT22;12385;51.412;5.540;2023-05-10T07:29:26;14.80;99.90
24262;DHT22;12385;51.412;5.540;2023-05-10T07:31:52;14.70;99.90
24262;DHT22;12385;51.412;5.540;2023-05-10T07:34:18;14.80;99.90
24262;DHT22;12385;51.412;5.540;2023-05-10T07:36:44;14.80;99.90
24262;DHT22;12385;51.412;5.540;2023-05-10T07:39:09;14.80;99.90
24262;DHT22;12385;51.412;5.540;2023-05-10T07:41:35;14.80;99.90
24262;DHT22;12385;51.412;5.540;2023-05-10T07:44:03;14.80;99.90
24262;DHT22;12385;51.412;5.540;2023-05-10T07:46:29;14.70;99.90
24262;DHT22;12385;51.412;5.540;2023-05-10T07:48:54;14.70;99.90
24262;DHT22;12385;51.412;5.540;2023-05-10T07:51:20;14.70;99.90
24262;DHT22;12385;51.412;5.540;2023-05-10T07:53:46;14.60;99.90
24262;DHT22;12385;51.412;5.540;2023-05-10T07:56:26;14.60;99.90
24262;DHT22;12385;51.412;5.540;2023-05-10T07:58:55;14.60;99.90
24262;DHT22;12385;51.412;5.540;2023-05-10T08:01:22;14.60;99.90
24262;DHT22;12385;51.412;5.540;2023-05-10T08:03:49;14.60;99.90
24262;DHT22;12385;51.412;5.540;2023-05-10T08:06:17;14.60;99.90
24262;DHT22;12385;51.412;5.540;2023-05-10T08:08:43;14.70;99.90
24262;DHT22;12385;51.412;5.540;2023-05-10T08:11:10;14.60;99.90
24262;DHT22;12385;51.412;5.540;2023-05-10T08:13:36;14.60;99.90
24262;DHT22;12385;51.412;5.540;2023-05-10T08:16:02;14.60;99.90
24262;DHT22;12385;51.412;5.540;2023-05-10T08:18:27;14.60;99.90
24262;DHT22;12385;51.412;5.540;2023-05-10T08:20:54;14.60;99.90
24262;DHT22;12385;51.412;5.540;2023-05-10T08:23:19;14.60;99.90
24262;DHT22;12385;51.412;5.540;2023-05-10T08:25:45;14.60;99.90
24262;DHT22;12385;51.412;5.540;2023-05-10T08:28:11;14.60;99.90
24262;DHT22;12385;51.412;5.540;2023-05-10T08:30:36;14.50;99.90
24262;DHT22;12385;51.412;5.540;2023-05-10T08:33:02;14.50;99.90
24262;DHT22;12385;51.412;5.540;2023-05-10T08:35:28;14.50;99.90
24262;DHT22;12385;51.412;5.540;2023-05-10T08:37:53;14.60;99.90
24262;DHT22;12385;51.412;5.540;2023-05-10T08:40:19;14.70;99.90
24262;DHT22;12385;51.412;5.540;2023-05-10T08:42:55;14.70;99.90
24262;DHT22;12385;51.412;5.540;2023-05-10T08:45:23;14.70;99.90
24262;DHT22;12385;51.412;5.540;2023-05-10T08:47:50;14.80;99.90
24262;DHT22;12385;51.412;5.540;2023-05-10T08:50:20;14.80;99.90
24262;DHT22;12385;51.412;5.540;2023-05-10T08:52:48;14.90;99.90
24262;DHT22;12385;51.412;5.540;2023-05-10T08:55:16;14.90;99.90
24262;DHT22;12385;51.412;5.540;2023-05-10T08:57:42;14.90;99.90
24262;DHT22;12385;51.412;5.540;2023-05-10T09:00:08;14.90;99.90
24262;DHT22;12385;51.412;5.540;2023-05-10T09:02:36;15.00;99.90
24262;DHT22;12385;51.412;5.540;2023-05-10T09:05:03;15.10;99.90
24262;DHT22;12385;51.412;5.540;2023-05-10T09:07:30;15.10;99.90
24262;DHT22;12385;51.412;5.540;2023-05-10T09:09:56;15.20;99.90
24262;DHT22;12385;51.412;5.540;2023-05-10T09:12:22;15.20;99.90
24262;DHT22;12385;51.412;5.540;2023-05-10T09:14:50;15.10;99.90
24262;DHT22;12385;51.412;5.540;2023-05-10T09:17:17;15.20;99.90
24262;DHT22;12385;51.412;5.540;2023-05-10T09:19:45;15.20;99.90
24262;DHT22;12385;51.412;5.540;2023-05-10T09:22:10;15.30;99.90
24262;DHT22;12385;51.412;5.540;2023-05-10T09:24:36;15.30;99.90
24262;DHT22;12385;51.412;5.540;2023-05-10T09:27:07;15.30;99.90
24262;DHT22;12385;51.412;5.540;2023-05-10T09:29:42;15.20;99.90
24262;DHT22;12385;51.412;5.540;2023-05-10T09:32:08;15.30;99.90
24262;DHT22;12385;51.412;5.540;2023-05-10T09:34:34;15.30;99.90
24262;DHT22;12385;51.412;5.540;2023-05-10T09:37:05;15.30;99.90
24262;DHT22;12385;51.412;5.540;2023-05-10T09:39:37;15.40;99.90
24262;DHT22;12385;51.412;5.540;2023-05-10T09:42:07;15.50;99.90
24262;DHT22;12385;51.412;5.540;2023-05-10T09:44:34;15.60;99.90
24262;DHT22;12385;51.412;5.540;2023-05-10T09:47:01;15.80;99.90
24262;DHT22;12385;51.412;5.540;2023-05-10T09:49:27;15.90;99.90
24262;DHT22;12385;51.412;5.540;2023-05-10T09:52:03;15.90;99.90
24262;DHT22;12385;51.412;5.540;2023-05-10T09:54:29;15.90;99.90
24262;DHT22;12385;51.412;5.540;2023-05-10T09:56:55;15.90;99.90
24262;DHT22;12385;51.412;5.540;2023-05-10T09:59:21;15.90;99.90
24262;DHT22;12385;51.412;5.540;2023-05-10T10:01:50;15.90;99.90
24262;DHT22;12385;51.412;5.540;2023-05-10T10:04:16;15.90;99.90
24262;DHT22;12385;51.412;5.540;2023-05-10T10:06:42;15.90;99.90
24262;DHT22;12385;51.412;5.540;2023-05-10T10:09:08;16.00;99.90
24262;DHT22;12385;51.412;5.540;2023-05-10T10:11:37;16.20;99.90
24262;DHT22;12385;51.412;5.540;2023-05-10T10:14:03;16.30;99.90
24262;DHT22;12385;51.412;5.540;2023-05-10T10:16:29;16.40;99.90
24262;DHT22;12385;51.412;5.540;2023-05-10T10:18:56;16.50;99.90
24262;DHT22;12385;51.412;5.540;2023-05-10T10:21:22;16.60;99.90
24262;DHT22;12385;51.412;5.540;2023-05-10T10:23:48;16.70;99.90
24262;DHT22;12385;51.412;5.540;2023-05-10T10:26:14;16.70;99.90
24262;DHT22;12385;51.412;5.540;2023-05-10T10:31:32;16.80;99.90
24262;DHT22;12385;51.412;5.540;2023-05-10T10:34:07;16.80;99.90
24262;DHT22;12385;51.412;5.540;2023-05-10T10:37:03;16.70;99.90
24262;DHT22;12385;51.412;5.540;2023-05-10T10:39:30;16.70;99.90
24262;DHT22;12385;51.412;5.540;2023-05-10T10:41:57;16.80;99.90
24262;DHT22;12385;51.412;5.540;2023-05-10T10:52:32;16.70;99.90
24262;DHT22;12385;51.412;5.540;2023-05-10T10:55:10;16.60;99.90
24262;DHT22;12385;51.412;5.540;2023-05-10T10:57:53;16.60;99.90
24262;DHT22;12385;51.412;5.540;2023-05-10T11:00:38;16.60;99.90
24262;DHT22;12385;51.412;5.540;2023-05-10T11:03:10;16.70;99.90
24262;DHT22;12385;51.412;5.540;2023-05-10T11:05:48;16.60;99.90
24262;DHT22;12385;51.412;5.540;2023-05-10T11:08:17;16.60;99.90
24262;DHT22;12385;51.412;5.540;2023-05-10T11:13:43;16.60;99.90
24262;DHT22;12385;51.412;5.540;2023-05-10T11:16:16;16.60;99.90
24262;DHT22;12385;51.412;5.540;2023-05-10T11:19:05;16.70;99.90
24262;DHT22;12385;51.412;5.540;2023-05-10T11:21:32;16.70;99.90
24262;DHT22;12385;51.412;5.540;2023-05-10T11:24:00;16.80;99.90
24262;DHT22;12385;51.412;5.540;2023-05-10T11:26:35;16.90;99.90
24262;DHT22;12385;51.412;5.540;2023-05-10T11:29:01;16.90;99.90
24262;DHT22;12385;51.412;5.540;2023-05-10T11:31:28;17.00;99.90
24262;DHT22;12385;51.412;5.540;2023-05-10T11:33:55;17.10;99.90
24262;DHT22;12385;51.412;5.540;2023-05-10T11:36:29;17.20;99.90
24262;DHT22;12385;51.412;5.540;2023-05-10T11:38:56;17.40;99.90
24262;DHT22;12385;51.412;5.540;2023-05-10T11:41:23;17.60;99.90
24262;DHT22;12385;51.412;5.540;2023-05-10T11:43:51;17.80;99.90
24262;DHT22;12385;51.412;5.540;2023-05-10T11:46:19;17.90;99.90
24262;DHT22;12385;51.412;5.540;2023-05-10T11:48:46;18.00;99.90
24262;DHT22;12385;51.412;5.540;2023-05-10T11:51:12;18.10;99.90
24262;DHT22;12385;51.412;5.540;2023-05-10T11:53:38;18.30;99.90
24262;DHT22;12385;51.412;5.540;2023-05-10T11:56:10;18.60;99.90
24262;DHT22;12385;51.412;5.540;2023-05-10T11:58:38;18.80;99.90
24262;DHT22;12385;51.412;5.540;2023-05-10T12:01:05;19.10;99.90
24262;DHT22;12385;51.412;5.540;2023-05-10T12:03:31;19.20;99.90
24262;DHT22;12385;51.412;5.540;2023-05-10T12:05:58;19.30;99.90
24262;DHT22;12385;51.412;5.540;2023-05-10T12:08:26;19.40;99.90
24262;DHT22;12385;51.412;5.540;2023-05-10T12:10:53;19.50;99.90
24262;DHT22;12385;51.412;5.540;2023-05-10T12:13:20;19.50;99.90
24262;DHT22;12385;51.412;5.540;2023-05-10T12:15:46;19.40;99.90
24262;DHT22;12385;51.412;5.540;2023-05-10T12:18:13;19.30;99.90
24262;DHT22;12385;51.412;5.540;2023-05-10T12:20:39;19.20;99.90
24262;DHT22;12385;51.412;5.540;2023-05-10T12:23:05;19.10;99.90
24262;DHT22;12385;51.412;5.540;2023-05-10T12:25:34;19.00;99.90
24262;DHT22;12385;51.412;5.540;2023-05-10T12:28:03;19.00;99.90
24262;DHT22;12385;51.412;5.540;2023-05-10T12:30:31;18.90;99.90
24262;DHT22;12385;51.412;5.540;2023-05-10T12:35:49;18.80;99.90
24262;DHT22;12385;51.412;5.540;2023-05-10T12:38:35;18.70;99.90
24262;DHT22;12385;51.412;5.540;2023-05-10T12:41:04;18.60;99.90
24262;DHT22;12385;51.412;5.540;2023-05-10T12:43:32;18.60;99.90
24262;DHT22;12385;51.412;5.540;2023-05-10T12:45:58;18.60;99.90
24262;DHT22;12385;51.412;5.540;2023-05-10T12:48:24;18.60;99.90
24262;DHT22;12385;51.412;5.540;2023-05-10T12:50:50;18.60;99.90
24262;DHT22;12385;51.412;5.540;2023-05-10T12:53:16;18.60;99.90
24262;DHT22;12385;51.412;5.540;2023-05-10T12:55:43;18.60;99.90
24262;DHT22;12385;51.412;5.540;2023-05-10T12:58:08;18.60;99.90
24262;DHT22;12385;51.412;5.540;2023-05-10T13:00:34;18.50;99.90
24262;DHT22;12385;51.412;5.540;2023-05-10T13:03:00;18.50;99.90
24262;DHT22;12385;51.412;5.540;2023-05-10T13:05:25;18.50;99.90
24262;DHT22;12385;51.412;5.540;2023-05-10T13:07:51;18.30;99.90
24262;DHT22;12385;51.412;5.540;2023-05-10T13:10:17;18.20;99.90
24262;DHT22;12385;51.412;5.540;2023-05-10T13:12:42;18.00;99.90
24262;DHT22;12385;51.412;5.540;2023-05-10T13:15:08;18.00;99.90
24262;DHT22;12385;51.412;5.540;2023-05-10T13:17:34;17.80;99.90
24262;DHT22;12385;51.412;5.540;2023-05-10T13:20:00;17.80;99.90
24262;DHT22;12385;51.412;5.540;2023-05-10T13:22:25;17.70;99.90
24262;DHT22;12385;51.412;5.540;2023-05-10T13:24:51;17.60;99.90
24262;DHT22;12385;51.412;5.540;2023-05-10T13:27:17;17.50;99.90
24262;DHT22;12385;51.412;5.540;2023-05-10T13:29:42;17.40;99.90
24262;DHT22;12385;51.412;5.540;2023-05-10T13:32:08;17.30;99.90
24262;DHT22;12385;51.412;5.540;2023-05-10T13:34:33;17.10;99.90
24262;DHT22;12385;51.412;5.540;2023-05-10T13:37:01;17.00;99.90
24262;DHT22;12385;51.412;5.540;2023-05-10T13:39:26;16.90;99.90
24262;DHT22;12385;51.412;5.540;2023-05-10T13:41:52;16.80;99.90
24262;DHT22;12385;51.412;5.540;2023-05-10T13:44:19;16.70;99.90
24262;DHT22;12385;51.412;5.540;2023-05-10T13:46:45;16.70;99.90
24262;DHT22;12385;51.412;5.540;2023-05-10T13:49:11;16.50;99.90
24262;DHT22;12385;51.412;5.540;2023-05-10T13:51:37;16.40;99.90
24262;DHT22;12385;51.412;5.540;2023-05-10T13:54:03;16.30;99.90
24262;DHT22;12385;51.412;5.540;2023-05-10T13:56:28;16.20;99.90
24262;DHT22;12385;51.412;5.540;2023-05-10T13:58:55;16.10;99.90
24262;DHT22;12385;51.412;5.540;2023-05-10T14:01:21;16.00;99.90
24262;DHT22;12385;51.412;5.540;2023-05-10T14:03:47;15.90;99.90
24262;DHT22;12385;51.412;5.540;2023-05-10T14:06:13;15.90;99.90
24262;DHT22;12385;51.412;5.540;2023-05-10T14:08:39;15.90;99.90
24262;DHT22;12385;51.412;5.540;2023-05-10T14:11:04;15.90;99.90
24262;DHT22;12385;51.412;5.540;2023-05-10T14:13:30;15.90;99.90
24262;DHT22;12385;51.412;5.540;2023-05-10T14:15:56;15.90;99.90
24262;DHT22;12385;51.412;5.540;2023-05-10T14:18:21;15.80;99.90
24262;DHT22;12385;51.412;5.540;2023-05-10T14:20:47;15.70;99.90
24262;DHT22;12385;51.412;5.540;2023-05-10T14:23:13;15.70;99.90
24262;DHT22;12385;51.412;5.540;2023-05-10T14:25:40;15.60;99.90
24262;DHT22;12385;51.412;5.540;2023-05-10T14:28:06;15.50;99.90
24262;DHT22;12385;51.412;5.540;2023-05-10T14:30:32;15.50;99.90
24262;DHT22;12385;51.412;5.540;2023-05-10T14:32:59;15.50;99.90
24262;DHT22;12385;51.412;5.540;2023-05-10T14:35:27;15.50;99.90
24262;DHT22;12385;51.412;5.540;2023-05-10T14:37:53;15.50;99.90
24262;DHT22;12385;51.412;5.540;2023-05-10T14:40:19;15.40;99.90
24262;DHT22;12385;51.412;5.540;2023-05-10T14:42:44;15.30;99.90
24262;DHT22;12385;51.412;5.540;2023-05-10T14:45:10;15.30;99.90
24262;DHT22;12385;51.412;5.540;2023-05-10T14:47:36;15.30;99.90
24262;DHT22;12385;51.412;5.540;2023-05-10T14:50:02;15.40;99.90
24262;DHT22;12385;51.412;5.540;2023-05-10T14:52:27;15.40;99.90
24262;DHT22;12385;51.412;5.540;2023-05-10T14:54:53;15.40;99.90
24262;DHT22;12385;51.412;5.540;2023-05-10T14:57:19;15.50;99.90
24262;DHT22;12385;51.412;5.540;2023-05-10T14:59:44;15.50;99.90
24262;DHT22;12385;51.412;5.540;2023-05-10T15:02:10;15.40;99.90
24262;DHT22;12385;51.412;5.540;2023-05-10T15:04:36;15.30;99.90
24262;DHT22;12385;51.412;5.540;2023-05-10T15:07:02;15.30;99.90
24262;DHT22;12385;51.412;5.540;2023-05-10T15:09:28;15.30;99.90
24262;DHT22;12385;51.412;5.540;2023-05-10T15:11:55;15.30;99.90
24262;DHT22;12385;51.412;5.540;2023-05-10T15:14:22;15.30;99.90
24262;DHT22;12385;51.412;5.540;2023-05-10T15:16:47;15.30;99.90
24262;DHT22;12385;51.412;5.540;2023-05-10T15:19:13;15.30;99.90
24262;DHT22;12385;51.412;5.540;2023-05-10T15:21:39;15.30;99.90
24262;DHT22;12385;51.412;5.540;2023-05-10T15:24:07;15.30;99.90
24262;DHT22;12385;51.412;5.540;2023-05-10T15:26:33;15.40;99.90
24262;DHT22;12385;51.412;5.540;2023-05-10T15:28:58;15.40;99.90
24262;DHT22;12385;51.412;5.540;2023-05-10T15:31:24;15.50;99.90
24262;DHT22;12385;51.412;5.540;2023-05-10T15:33:50;15.50;99.90
24262;DHT22;12385;51.412;5.540;2023-05-10T15:36:16;15.40;99.90
24262;DHT22;12385;51.412;5.540;2023-05-10T15:38:43;15.40;99.90
24262;DHT22;12385;51.412;5.540;2023-05-10T15:41:09;15.40;99.90
24262;DHT22;12385;51.412;5.540;2023-05-10T15:43:35;15.30;99.90
24262;DHT22;12385;51.412;5.540;2023-05-10T15:46:01;15.30;99.90
24262;DHT22;12385;51.412;5.540;2023-05-10T15:48:26;15.20;99.90
24262;DHT22;12385;51.412;5.540;2023-05-10T15:50:52;15.20;99.90
24262;DHT22;12385;51.412;5.540;2023-05-10T15:53:18;15.10;99.90
24262;DHT22;12385;51.412;5.540;2023-05-10T15:55:43;15.20;99.90
24262;DHT22;12385;51.412;5.540;2023-05-10T15:58:09;15.30;99.90
24262;DHT22;12385;51.412;5.540;2023-05-10T16:00:35;15.20;99.90
24262;DHT22;12385;51.412;5.540;2023-05-10T16:03:01;15.20;99.90
24262;DHT22;12385;51.412;5.540;2023-05-10T16:05:27;15.10;99.90
24262;DHT22;12385;51.412;5.540;2023-05-10T16:07:56;15.20;99.90